Islip, New York
Current Conditions -  °F | °C
As of 11:56 PM on Wednesday 22 Oct 2014 (Local Time) from KISP Reporting Station
Overcast Overcast  
Wind Chill: 52°   Ceiling: 1700
Heat Index: 52°   Visibility: 10mi
Dew Point: 48°   Wind: 18mph
Humidity: 86%   Direction: 10°N
Pressure: 29.66"   Gusts: 37mph
Location:  40.73°N, 73.21°W
Report Text: KISP 230356Z 01016G32KT 10SM FEW011 BKN017 OVC026 11/09 A2966 RMK AO2 PK WND 02036/0257 RAE0257B42E52 SLP042 LAST AUGMENTED OBSERVATION UNTIL 1000Z P0000 T01110089
Loading
Personal Weather Stations






























Interactive Weather Map New forecast layout! Learn more

10-Day Weather Forecast

Advertisements
Track Severe Weather on mobile